sensor_id;sensor_type;location;lat;lon;timestamp;pressure;altitude;pressure_sealevel;temperature;humidity
51715;BME280;39115;59.332;18.034;2023-03-23T00:00:40;98958.28;;;7.14;70.17
51715;BME280;39115;59.332;18.034;2023-03-23T00:03:01;98965.69;;;7.10;70.32
51715;BME280;39115;59.332;18.034;2023-03-23T00:05:21;98980.22;;;7.06;70.16
51715;BME280;39115;59.332;18.034;2023-03-23T00:07:42;98960.03;;;7.05;70.27
51715;BME280;39115;59.332;18.034;2023-03-23T00:10:05;98957.72;;;7.02;70.02
51715;BME280;39115;59.332;18.034;2023-03-23T00:12:28;98947.25;;;7.00;70.27
51715;BME280;39115;59.332;18.034;2023-03-23T00:14:53;98946.59;;;6.98;70.19
51715;BME280;39115;59.332;18.034;2023-03-23T00:17:14;98949.38;;;6.96;70.45
51715;BME280;39115;59.332;18.034;2023-03-23T00:19:34;98968.91;;;6.95;69.94
51715;BME280;39115;59.332;18.034;2023-03-23T00:22:05;98966.41;;;6.94;70.35
51715;BME280;39115;59.332;18.034;2023-03-23T00:24:26;98966.56;;;6.92;70.06
51715;BME280;39115;59.332;18.034;2023-03-23T00:26:48;98962.44;;;6.90;70.39
51715;BME280;39115;59.332;18.034;2023-03-23T00:29:18;98954.50;;;6.90;70.50
51715;BME280;39115;59.332;18.034;2023-03-23T00:31:42;98974.81;;;6.89;70.28
51715;BME280;39115;59.332;18.034;2023-03-23T00:34:06;98961.56;;;6.89;70.32
51715;BME280;39115;59.332;18.034;2023-03-23T00:36:28;98974.28;;;6.86;70.10
51715;BME280;39115;59.332;18.034;2023-03-23T00:38:48;98969.16;;;6.84;69.94
51715;BME280;39115;59.332;18.034;2023-03-23T00:41:09;98971.81;;;6.84;69.95
51715;BME280;39115;59.332;18.034;2023-03-23T00:43:32;98958.56;;;6.84;70.18
51715;BME280;39115;59.332;18.034;2023-03-23T00:45:56;98966.50;;;6.84;69.99
51715;BME280;39115;59.332;18.034;2023-03-23T00:48:22;98980.72;;;6.83;70.36
51715;BME280;39115;59.332;18.034;2023-03-23T00:50:43;98983.53;;;6.82;70.29
51715;BME280;39115;59.332;18.034;2023-03-23T00:53:03;98986.47;;;6.78;70.21
51715;BME280;39115;59.332;18.034;2023-03-23T00:55:25;98969.78;;;6.78;70.19
51715;BME280;39115;59.332;18.034;2023-03-23T00:57:45;98983.97;;;6.77;70.15
51715;BME280;39115;59.332;18.034;2023-03-23T01:00:06;98972.72;;;6.75;70.09
51715;BME280;39115;59.332;18.034;2023-03-23T01:02:31;98971.91;;;6.74;69.92
51715;BME280;39115;59.332;18.034;2023-03-23T01:04:51;98985.25;;;6.73;69.75
51715;BME280;39115;59.332;18.034;2023-03-23T01:07:14;98982.94;;;6.70;70.03
51715;BME280;39115;59.332;18.034;2023-03-23T01:09:39;98979.59;;;6.68;70.20
51715;BME280;39115;59.332;18.034;2023-03-23T01:12:00;98971.16;;;6.64;69.95
51715;BME280;39115;59.332;18.034;2023-03-23T01:14:20;98974.75;;;6.63;70.09
51715;BME280;39115;59.332;18.034;2023-03-23T01:16:41;98969.81;;;6.60;69.70
51715;BME280;39115;59.332;18.034;2023-03-23T01:19:02;98973.56;;;6.57;69.94
51715;BME280;39115;59.332;18.034;2023-03-23T01:21:22;98995.84;;;6.55;70.04
51715;BME280;39115;59.332;18.034;2023-03-23T01:23:43;98982.94;;;6.52;70.06
51715;BME280;39115;59.332;18.034;2023-03-23T01:26:10;98968.22;;;6.49;69.91
51715;BME280;39115;59.332;18.034;2023-03-23T01:28:31;98965.88;;;6.46;69.81
51715;BME280;39115;59.332;18.034;2023-03-23T01:30:51;98980.22;;;6.43;69.96
51715;BME280;39115;59.332;18.034;2023-03-23T01:33:12;98965.50;;;6.41;70.11
51715;BME280;39115;59.332;18.034;2023-03-23T01:35:32;98978.84;;;6.39;69.65
51715;BME280;39115;59.332;18.034;2023-03-23T01:37:54;98977.34;;;6.37;70.11
51715;BME280;39115;59.332;18.034;2023-03-23T01:40:15;98980.31;;;6.33;69.85
51715;BME280;39115;59.332;18.034;2023-03-23T01:42:37;98986.56;;;6.32;69.91
51715;BME280;39115;59.332;18.034;2023-03-23T01:47:40;98994.25;;;6.26;70.15
51715;BME280;39115;59.332;18.034;2023-03-23T01:50:01;98986.50;;;6.24;70.31
51715;BME280;39115;59.332;18.034;2023-03-23T01:52:26;98983.16;;;6.22;70.28
51715;BME280;39115;59.332;18.034;2023-03-23T01:54:51;98972.06;;;6.19;69.92
51715;BME280;39115;59.332;18.034;2023-03-23T01:57:15;98972.34;;;6.15;69.93
51715;BME280;39115;59.332;18.034;2023-03-23T01:59:37;98975.16;;;6.14;70.29
51715;BME280;39115;59.332;18.034;2023-03-23T02:01:58;98957.94;;;6.10;69.82
51715;BME280;39115;59.332;18.034;2023-03-23T02:04:23;98971.44;;;6.07;70.01
51715;BME280;39115;59.332;18.034;2023-03-23T02:06:45;98968.28;;;6.03;70.18
51715;BME280;39115;59.332;18.034;2023-03-23T02:09:05;98967.72;;;5.99;70.43
51715;BME280;39115;59.332;18.034;2023-03-23T02:11:28;98979.25;;;5.98;70.49
51715;BME280;39115;59.332;18.034;2023-03-23T02:13:49;98966.31;;;5.95;70.09
51715;BME280;39115;59.332;18.034;2023-03-23T02:16:28;98974.41;;;5.94;70.45
51715;BME280;39115;59.332;18.034;2023-03-23T02:22:11;98970.16;;;5.83;70.43
51715;BME280;39115;59.332;18.034;2023-03-23T02:35:12;98971.19;;;5.72;70.82
51715;BME280;39115;59.332;18.034;2023-03-23T02:37:40;98967.03;;;5.69;70.68
51715;BME280;39115;59.332;18.034;2023-03-23T02:40:13;98957.47;;;5.68;70.10
51715;BME280;39115;59.332;18.034;2023-03-23T02:42:38;98978.84;;;5.65;70.55
51715;BME280;39115;59.332;18.034;2023-03-23T02:45:04;98972.91;;;5.63;70.70
51715;BME280;39115;59.332;18.034;2023-03-23T02:47:26;98958.88;;;5.63;70.11
51715;BME280;39115;59.332;18.034;2023-03-23T02:49:50;98966.25;;;5.59;70.48
51715;BME280;39115;59.332;18.034;2023-03-23T02:52:16;98962.91;;;5.57;70.43
51715;BME280;39115;59.332;18.034;2023-03-23T02:54:37;98961.13;;;5.58;70.76
51715;BME280;39115;59.332;18.034;2023-03-23T02:56:59;98966.53;;;5.56;70.78
51715;BME280;39115;59.332;18.034;2023-03-23T02:59:21;98967.53;;;5.55;70.23
51715;BME280;39115;59.332;18.034;2023-03-23T03:04:07;98951.53;;;5.57;70.32
51715;BME280;39115;59.332;18.034;2023-03-23T03:11:55;98958.47;;;5.58;70.57
51715;BME280;39115;59.332;18.034;2023-03-23T03:14:24;98951.53;;;5.57;70.15
51715;BME280;39115;59.332;18.034;2023-03-23T03:17:23;98960.28;;;5.57;70.64
51715;BME280;39115;59.332;18.034;2023-03-23T03:19:47;98969.16;;;5.56;69.95
51715;BME280;39115;59.332;18.034;2023-03-23T03:22:09;98958.75;;;5.54;70.18
51715;BME280;39115;59.332;18.034;2023-03-23T03:24:31;98965.00;;;5.53;70.18
51715;BME280;39115;59.332;18.034;2023-03-23T03:26:54;98964.03;;;5.54;70.13
51715;BME280;39115;59.332;18.034;2023-03-23T03:29:22;98956.13;;;5.54;70.07
51715;BME280;39115;59.332;18.034;2023-03-23T03:31:44;98970.84;;;5.57;69.88
51715;BME280;39115;59.332;18.034;2023-03-23T03:34:06;98982.09;;;5.59;70.03
51715;BME280;39115;59.332;18.034;2023-03-23T03:36:29;98954.72;;;5.60;70.15
51715;BME280;39115;59.332;18.034;2023-03-23T03:38:54;98973.19;;;5.60;69.89
51715;BME280;39115;59.332;18.034;2023-03-23T03:41:18;98966.25;;;5.59;70.31
51715;BME280;39115;59.332;18.034;2023-03-23T03:43:39;98974.31;;;5.58;70.25
51715;BME280;39115;59.332;18.034;2023-03-23T03:45:59;98958.91;;;5.53;69.92
51715;BME280;39115;59.332;18.034;2023-03-23T03:48:20;98967.81;;;5.52;70.41
51715;BME280;39115;59.332;18.034;2023-03-23T03:50:40;98966.28;;;5.49;70.32
51715;BME280;39115;59.332;18.034;2023-03-23T03:53:01;98956.03;;;5.46;70.13
51715;BME280;39115;59.332;18.034;2023-03-23T03:55:21;98959.78;;;5.44;70.64
51715;BME280;39115;59.332;18.034;2023-03-23T03:57:42;98951.19;;;5.42;70.10
51715;BME280;39115;59.332;18.034;2023-03-23T04:00:08;98954.78;;;5.41;70.10
51715;BME280;39115;59.332;18.034;2023-03-23T04:02:35;98947.19;;;5.37;70.60
51715;BME280;39115;59.332;18.034;2023-03-23T04:04:55;98956.88;;;5.37;70.58
51715;BME280;39115;59.332;18.034;2023-03-23T04:07:16;98970.22;;;5.35;70.09
51715;BME280;39115;59.332;18.034;2023-03-23T04:09:37;98966.78;;;5.35;70.79
51715;BME280;39115;59.332;18.034;2023-03-23T04:11:58;98951.06;;;5.33;70.72
51715;BME280;39115;59.332;18.034;2023-03-23T04:14:18;98944.16;;;5.32;71.02
51715;BME280;39115;59.332;18.034;2023-03-23T04:16:39;98957.47;;;5.31;71.04
51715;BME280;39115;59.332;18.034;2023-03-23T04:19:00;98953.31;;;5.28;70.88
51715;BME280;39115;59.332;18.034;2023-03-23T04:21:21;98956.09;;;5.27;70.96
51715;BME280;39115;59.332;18.034;2023-03-23T04:23:42;98965.00;;;5.26;71.10
51715;BME280;39115;59.332;18.034;2023-03-23T04:26:03;98959.88;;;5.24;70.83
51715;BME280;39115;59.332;18.034;2023-03-23T04:28:25;98969.56;;;5.23;70.87
51715;BME280;39115;59.332;18.034;2023-03-23T04:30:46;98966.25;;;5.21;71.19
51715;BME280;39115;59.332;18.034;2023-03-23T04:33:10;98964.44;;;5.22;71.00
51715;BME280;39115;59.332;18.034;2023-03-23T04:35:34;98971.66;;;5.20;71.28
51715;BME280;39115;59.332;18.034;2023-03-23T04:37:55;98970.97;;;5.18;71.07
51715;BME280;39115;59.332;18.034;2023-03-23T04:40:17;98975.59;;;5.16;71.15
51715;BME280;39115;59.332;18.034;2023-03-23T04:42:38;98983.34;;;5.17;71.43
51715;BME280;39115;59.332;18.034;2023-03-23T04:44:59;98983.50;;;5.16;71.46
51715;BME280;39115;59.332;18.034;2023-03-23T04:47:20;98997.66;;;5.15;71.04
51715;BME280;39115;59.332;18.034;2023-03-23T04:49:40;98983.78;;;5.13;71.24
51715;BME280;39115;59.332;18.034;2023-03-23T04:52:01;98977.69;;;5.12;71.67
51715;BME280;39115;59.332;18.034;2023-03-23T04:54:22;98987.38;;;5.12;71.28
51715;BME280;39115;59.332;18.034;2023-03-23T04:56:43;98984.88;;;5.10;71.46
51715;BME280;39115;59.332;18.034;2023-03-23T04:59:03;98992.81;;;5.10;71.25
51715;BME280;39115;59.332;18.034;2023-03-23T05:01:26;98988.34;;;5.11;71.40
51715;BME280;39115;59.332;18.034;2023-03-23T05:03:47;98976.00;;;5.11;71.11
51715;BME280;39115;59.332;18.034;2023-03-23T05:06:08;98985.59;;;5.12;71.00
51715;BME280;39115;59.332;18.034;2023-03-23T05:08:29;98975.03;;;5.12;71.51
51715;BME280;39115;59.332;18.034;2023-03-23T05:10:58;98989.75;;;5.15;71.42
51715;BME280;39115;59.332;18.034;2023-03-23T05:13:20;98991.53;;;5.14;71.48
51715;BME280;39115;59.332;18.034;2023-03-23T05:15:40;98991.41;;;5.16;71.05
51715;BME280;39115;59.332;18.034;2023-03-23T05:18:01;98988.78;;;5.16;71.33
51715;BME280;39115;59.332;18.034;2023-03-23T05:20:22;98981.41;;;5.19;71.47
51715;BME280;39115;59.332;18.034;2023-03-23T05:22:43;98987.50;;;5.20;70.97
51715;BME280;39115;59.332;18.034;2023-03-23T05:25:08;98989.16;;;5.21;71.24
51715;BME280;39115;59.332;18.034;2023-03-23T05:27:31;99005.69;;;5.23;71.33
51715;BME280;39115;59.332;18.034;2023-03-23T05:29:52;98990.69;;;5.23;71.67
51715;BME280;39115;59.332;18.034;2023-03-23T05:32:13;98979.97;;;5.25;70.88
51715;BME280;39115;59.332;18.034;2023-03-23T05:34:34;98978.88;;;5.28;70.97
51715;BME280;39115;59.332;18.034;2023-03-23T05:36:55;98986.66;;;5.29;71.31
51715;BME280;39115;59.332;18.034;2023-03-23T05:39:17;98994.56;;;5.29;71.13
51715;BME280;39115;59.332;18.034;2023-03-23T05:41:38;98991.66;;;5.32;71.37
51715;BME280;39115;59.332;18.034;2023-03-23T05:43:59;99003.84;;;5.33;70.95
51715;BME280;39115;59.332;18.034;2023-03-23T05:46:19;99013.28;;;5.36;71.08
51715;BME280;39115;59.332;18.034;2023-03-23T05:48:40;99010.50;;;5.37;71.08
51715;BME280;39115;59.332;18.034;2023-03-23T05:51:01;99028.00;;;5.38;70.75
51715;BME280;39115;59.332;18.034;2023-03-23T05:53:21;99019.78;;;5.42;70.98
51715;BME280;39115;59.332;18.034;2023-03-23T05:55:41;99008.13;;;5.44;70.47
51715;BME280;39115;59.332;18.034;2023-03-23T05:58:02;99008.81;;;5.46;70.53
51715;BME280;39115;59.332;18.034;2023-03-23T06:00:23;99005.03;;;5.49;70.77
51715;BME280;39115;59.332;18.034;2023-03-23T06:02:43;99010.03;;;5.52;70.51
51715;BME280;39115;59.332;18.034;2023-03-23T06:05:04;99006.28;;;5.54;70.20
51715;BME280;39115;59.332;18.034;2023-03-23T06:07:25;99011.28;;;5.58;70.21
51715;BME280;39115;59.332;18.034;2023-03-23T06:09:45;99022.53;;;5.60;69.98
51715;BME280;39115;59.332;18.034;2023-03-23T06:12:06;99014.16;;;5.64;70.46
51715;BME280;39115;59.332;18.034;2023-03-23T06:14:27;99014.69;;;5.68;69.94
51715;BME280;39115;59.332;18.034;2023-03-23T06:16:48;99019.69;;;5.71;69.76
51715;BME280;39115;59.332;18.034;2023-03-23T06:19:08;99013.97;;;5.76;69.92
51715;BME280;39115;59.332;18.034;2023-03-23T06:21:32;99023.25;;;5.80;69.68
51715;BME280;39115;59.332;18.034;2023-03-23T06:23:53;99033.25;;;5.86;69.89
51715;BME280;39115;59.332;18.034;2023-03-23T06:26:14;99018.59;;;5.92;69.88
51715;BME280;39115;59.332;18.034;2023-03-23T06:28:36;99034.03;;;5.96;69.40
51715;BME280;39115;59.332;18.034;2023-03-23T06:31:03;99024.72;;;6.02;69.26
51715;BME280;39115;59.332;18.034;2023-03-23T06:33:26;99041.78;;;6.08;68.87
51715;BME280;39115;59.332;18.034;2023-03-23T06:35:46;99039.53;;;6.13;68.90
51715;BME280;39115;59.332;18.034;2023-03-23T06:38:08;99056.75;;;6.17;68.93
51715;BME280;39115;59.332;18.034;2023-03-23T06:40:29;99044.91;;;6.21;69.01
51715;BME280;39115;59.332;18.034;2023-03-23T06:42:49;99044.47;;;6.26;69.04
51715;BME280;39115;59.332;18.034;2023-03-23T06:45:10;99042.34;;;6.29;68.98
51715;BME280;39115;59.332;18.034;2023-03-23T06:47:31;99047.34;;;6.32;68.40
51715;BME280;39115;59.332;18.034;2023-03-23T06:49:51;99049.56;;;6.37;68.31
51715;BME280;39115;59.332;18.034;2023-03-23T06:52:12;99048.09;;;6.43;68.35
51715;BME280;39115;59.332;18.034;2023-03-23T06:54:32;99048.63;;;6.46;68.28
51715;BME280;39115;59.332;18.034;2023-03-23T06:56:53;99047.91;;;6.54;68.12
51715;BME280;39115;59.332;18.034;2023-03-23T06:59:13;99039.53;;;6.59;67.70
51715;BME280;39115;59.332;18.034;2023-03-23T07:01:34;99025.00;;;6.63;67.83
51715;BME280;39115;59.332;18.034;2023-03-23T07:03:54;99040.41;;;6.68;67.60
51715;BME280;39115;59.332;18.034;2023-03-23T07:06:16;99024.91;;;6.73;67.14
51715;BME280;39115;59.332;18.034;2023-03-23T07:08:36;99037.56;;;6.79;67.32
51715;BME280;39115;59.332;18.034;2023-03-23T07:10:57;99036.94;;;6.85;67.01
51715;BME280;39115;59.332;18.034;2023-03-23T07:13:17;99040.63;;;6.92;66.88
51715;BME280;39115;59.332;18.034;2023-03-23T07:15:39;99025.13;;;6.97;66.91
51715;BME280;39115;59.332;18.034;2023-03-23T07:17:59;99034.94;;;7.05;66.46
51715;BME280;39115;59.332;18.034;2023-03-23T07:20:20;99027.22;;;7.12;66.40
51715;BME280;39115;59.332;18.034;2023-03-23T07:22:40;99031.06;;;7.18;66.23
51715;BME280;39115;59.332;18.034;2023-03-23T07:25:01;99035.44;;;7.27;65.83
51715;BME280;39115;59.332;18.034;2023-03-23T07:27:22;99038.94;;;7.36;65.80
51715;BME280;39115;59.332;18.034;2023-03-23T07:29:43;99044.63;;;7.41;65.63
51715;BME280;39115;59.332;18.034;2023-03-23T07:32:06;99056.25;;;7.48;65.20
51715;BME280;39115;59.332;18.034;2023-03-23T07:34:26;99063.41;;;7.56;65.23
51715;BME280;39115;59.332;18.034;2023-03-23T07:36:48;99058.50;;;7.61;64.84
51715;BME280;39115;59.332;18.034;2023-03-23T07:39:08;99061.50;;;7.66;64.67
51715;BME280;39115;59.332;18.034;2023-03-23T07:41:29;99065.34;;;7.72;64.66
51715;BME280;39115;59.332;18.034;2023-03-23T07:43:49;99076.44;;;7.75;64.26
51715;BME280;39115;59.332;18.034;2023-03-23T07:46:10;99067.19;;;7.80;64.01
51715;BME280;39115;59.332;18.034;2023-03-23T07:48:30;99074.34;;;7.87;64.34
51715;BME280;39115;59.332;18.034;2023-03-23T07:50:51;99081.66;;;7.94;63.67
51715;BME280;39115;59.332;18.034;2023-03-23T07:53:11;99080.22;;;7.99;63.83
51715;BME280;39115;59.332;18.034;2023-03-23T07:55:32;99091.44;;;8.01;63.31
51715;BME280;39115;59.332;18.034;2023-03-23T07:57:54;99095.63;;;8.04;63.34
51715;BME280;39115;59.332;18.034;2023-03-23T08:00:16;99087.22;;;8.09;62.97
51715;BME280;39115;59.332;18.034;2023-03-23T08:02:40;99084.72;;;8.15;63.07
51715;BME280;39115;59.332;18.034;2023-03-23T08:05:01;99073.66;;;8.20;62.75
51715;BME280;39115;59.332;18.034;2023-03-23T08:07:23;99094.06;;;8.28;62.47
51715;BME280;39115;59.332;18.034;2023-03-23T08:09:43;99080.16;;;8.34;62.71
51715;BME280;39115;59.332;18.034;2023-03-23T08:12:04;99083.66;;;8.43;62.32
51715;BME280;39115;59.332;18.034;2023-03-23T08:14:25;99077.59;;;8.50;62.00
51715;BME280;39115;59.332;18.034;2023-03-23T08:16:47;99077.63;;;8.59;61.68
51715;BME280;39115;59.332;18.034;2023-03-23T08:19:08;99067.84;;;8.67;61.86
51715;BME280;39115;59.332;18.034;2023-03-23T08:21:28;99069.66;;;8.75;61.92
51715;BME280;39115;59.332;18.034;2023-03-23T08:23:49;99066.03;;;8.84;61.38
51715;BME280;39115;59.332;18.034;2023-03-23T08:26:10;99074.84;;;8.93;61.05
51715;BME280;39115;59.332;18.034;2023-03-23T08:28:30;99075.50;;;9.04;61.04
51715;BME280;39115;59.332;18.034;2023-03-23T08:30:51;99080.97;;;9.10;60.45
51715;BME280;39115;59.332;18.034;2023-03-23T08:33:11;99081.31;;;9.15;60.39
51715;BME280;39115;59.332;18.034;2023-03-23T08:35:32;99061.41;;;9.20;60.34
51715;BME280;39115;59.332;18.034;2023-03-23T08:37:52;99064.38;;;9.25;60.34
51715;BME280;39115;59.332;18.034;2023-03-23T08:40:14;99078.66;;;9.32;60.17
51715;BME280;39115;59.332;18.034;2023-03-23T08:42:36;99061.91;;;9.40;59.37
51715;BME280;39115;59.332;18.034;2023-03-23T08:44:57;99067.34;;;9.46;59.17
51715;BME280;39115;59.332;18.034;2023-03-23T08:47:18;99071.16;;;9.52;59.08
51715;BME280;39115;59.332;18.034;2023-03-23T08:49:39;99065.16;;;9.58;59.21
51715;BME280;39115;59.332;18.034;2023-03-23T08:52:00;99066.63;;;9.69;58.98
51715;BME280;39115;59.332;18.034;2023-03-23T08:54:21;99064.78;;;9.78;58.92
51715;BME280;39115;59.332;18.034;2023-03-23T08:56:41;99057.44;;;9.88;58.47
51715;BME280;39115;59.332;18.034;2023-03-23T08:59:02;99053.94;;;9.96;58.27
51715;BME280;39115;59.332;18.034;2023-03-23T09:01:22;99056.75;;;10.03;58.13
51715;BME280;39115;59.332;18.034;2023-03-23T09:03:43;99046.22;;;10.09;57.79
51715;BME280;39115;59.332;18.034;2023-03-23T09:06:06;99043.53;;;10.18;57.53
51715;BME280;39115;59.332;18.034;2023-03-23T09:08:28;99044.50;;;10.25;57.50
51715;BME280;39115;59.332;18.034;2023-03-23T09:10:52;99047.28;;;10.32;57.12
51715;BME280;39115;59.332;18.034;2023-03-23T09:13:12;99050.09;;;10.38;57.24
51715;BME280;39115;59.332;18.034;2023-03-23T09:15:33;99043.25;;;10.44;56.52
51715;BME280;39115;59.332;18.034;2023-03-23T09:17:54;99041.72;;;10.50;56.42
51715;BME280;39115;59.332;18.034;2023-03-23T09:20:17;99043.03;;;10.54;56.53
51715;BME280;39115;59.332;18.034;2023-03-23T09:22:44;99034.19;;;10.62;56.26
51715;BME280;39115;59.332;18.034;2023-03-23T09:25:10;99043.44;;;10.66;55.64
51715;BME280;39115;59.332;18.034;2023-03-23T09:27:31;99043.91;;;10.69;55.88
51715;BME280;39115;59.332;18.034;2023-03-23T09:29:51;99037.06;;;10.75;55.53
51715;BME280;39115;59.332;18.034;2023-03-23T09:32:12;99037.84;;;10.84;55.04
51715;BME280;39115;59.332;18.034;2023-03-23T09:34:33;99033.63;;;10.89;55.02
51715;BME280;39115;59.332;18.034;2023-03-23T09:36:58;99036.75;;;10.93;54.66
51715;BME280;39115;59.332;18.034;2023-03-23T09:39:19;99047.25;;;10.95;54.67
51715;BME280;39115;59.332;18.034;2023-03-23T09:46:58;99026.63;;;11.12;54.39
51715;BME280;39115;59.332;18.034;2023-03-23T09:52:01;99034.28;;;11.30;54.15
51715;BME280;39115;59.332;18.034;2023-03-23T09:54:29;99031.53;;;11.38;53.68
51715;BME280;39115;59.332;18.034;2023-03-23T09:56:50;99032.31;;;11.47;53.27
51715;BME280;39115;59.332;18.034;2023-03-23T09:59:31;99024.84;;;11.57;53.73
51715;BME280;39115;59.332;18.034;2023-03-23T10:02:10;99025.97;;;11.63;53.36
51715;BME280;39115;59.332;18.034;2023-03-23T10:04:46;99034.22;;;11.68;52.92
51715;BME280;39115;59.332;18.034;2023-03-23T10:07:22;99034.06;;;11.69;53.12
51715;BME280;39115;59.332;18.034;2023-03-23T10:09:46;99024.69;;;11.74;53.01
51715;BME280;39115;59.332;18.034;2023-03-23T10:12:19;99029.25;;;11.80;52.95
51715;BME280;39115;59.332;18.034;2023-03-23T10:14:51;99037.38;;;11.86;52.94
51715;BME280;39115;59.332;18.034;2023-03-23T10:17:19;99028.25;;;11.96;52.80
51715;BME280;39115;59.332;18.034;2023-03-23T10:22:19;99024.31;;;12.07;52.68
51715;BME280;39115;59.332;18.034;2023-03-23T10:27:19;99026.34;;;12.05;52.41
51715;BME280;39115;59.332;18.034;2023-03-23T10:29:47;99036.00;;;12.06;52.72
51715;BME280;39115;59.332;18.034;2023-03-23T10:32:14;99026.97;;;12.07;52.50
51715;BME280;39115;59.332;18.034;2023-03-23T10:39:43;99038.38;;;12.15;52.38
51715;BME280;39115;59.332;18.034;2023-03-23T10:42:05;99031.81;;;12.18;52.01
51715;BME280;39115;59.332;18.034;2023-03-23T10:44:28;99024.91;;;12.24;51.83
51715;BME280;39115;59.332;18.034;2023-03-23T10:47:07;99030.50;;;12.29;52.14
51715;BME280;39115;59.332;18.034;2023-03-23T10:52:38;99028.19;;;12.41;51.43
51715;BME280;39115;59.332;18.034;2023-03-23T10:55:14;99019.00;;;12.43;51.35
51715;BME280;39115;59.332;18.034;2023-03-23T10:57:37;99018.59;;;12.46;50.79
51715;BME280;39115;59.332;18.034;2023-03-23T11:02:24;99014.47;;;12.44;50.53
51715;BME280;39115;59.332;18.034;2023-03-23T11:05:03;99012.38;;;12.39;51.10
51715;BME280;39115;59.332;18.034;2023-03-23T11:07:29;99017.06;;;12.37;50.58
51715;BME280;39115;59.332;18.034;2023-03-23T11:09:56;99017.91;;;12.38;50.52
51715;BME280;39115;59.332;18.034;2023-03-23T11:12:19;99013.94;;;12.33;50.22
51715;BME280;39115;59.332;18.034;2023-03-23T11:14:40;99012.88;;;12.28;50.04
51715;BME280;39115;59.332;18.034;2023-03-23T11:17:04;99009.75;;;12.24;49.63
51715;BME280;39115;59.332;18.034;2023-03-23T11:19:30;99014.50;;;12.29;49.52
51715;BME280;39115;59.332;18.034;2023-03-23T11:21:53;99006.78;;;12.34;49.44
51715;BME280;39115;59.332;18.034;2023-03-23T11:24:14;99003.28;;;12.33;49.22
51715;BME280;39115;59.332;18.034;2023-03-23T11:26:35;99010.47;;;12.33;49.52
51715;BME280;39115;59.332;18.034;2023-03-23T11:29:03;98999.78;;;12.33;49.60
51715;BME280;39115;59.332;18.034;2023-03-23T11:31:36;98999.66;;;12.41;49.33
51715;BME280;39115;59.332;18.034;2023-03-23T11:34:02;98999.72;;;12.48;48.99
51715;BME280;39115;59.332;18.034;2023-03-23T11:36:36;98993.66;;;12.54;49.50
51715;BME280;39115;59.332;18.034;2023-03-23T11:38:57;99003.56;;;12.60;48.95
51715;BME280;39115;59.332;18.034;2023-03-23T11:41:19;99003.44;;;12.69;48.90
51715;BME280;39115;59.332;18.034;2023-03-23T11:43:44;98995.94;;;12.79;48.56
51715;BME280;39115;59.332;18.034;2023-03-23T11:47:28;99001.13;;;12.87;48.92
51715;BME280;39115;59.332;18.034;2023-03-23T11:51:56;98994.81;;;12.95;48.60
51715;BME280;39115;59.332;18.034;2023-03-23T11:54:31;98995.06;;;13.00;48.58
51715;BME280;39115;59.332;18.034;2023-03-23T11:56:53;98998.03;;;13.12;48.36
51715;BME280;39115;59.332;18.034;2023-03-23T11:59:25;99001.97;;;13.16;48.46
51715;BME280;39115;59.332;18.034;2023-03-23T12:01:57;98990.66;;;13.14;48.21
51715;BME280;39115;59.332;18.034;2023-03-23T12:07:25;98997.66;;;13.15;48.81
51715;BME280;39115;59.332;18.034;2023-03-23T12:12:45;98996.22;;;13.19;48.51
51715;BME280;39115;59.332;18.034;2023-03-23T12:26:09;98979.69;;;13.02;48.33
51715;BME280;39115;59.332;18.034;2023-03-23T12:41:49;98957.97;;;12.84;47.94
51715;BME280;39115;59.332;18.034;2023-03-23T12:44:13;98959.81;;;12.83;47.88
51715;BME280;39115;59.332;18.034;2023-03-23T12:52:02;98961.66;;;12.83;47.90
51715;BME280;39115;59.332;18.034;2023-03-23T12:54:40;98958.78;;;12.84;47.74
51715;BME280;39115;59.332;18.034;2023-03-23T13:02:44;98950.22;;;13.17;46.88
51715;BME280;39115;59.332;18.034;2023-03-23T13:05:33;98954.78;;;13.30;46.73
51715;BME280;39115;59.332;18.034;2023-03-23T13:08:41;98950.50;;;13.36;46.46
51715;BME280;39115;59.332;18.034;2023-03-23T13:10:47;98945.25;;;13.42;46.43
51715;BME280;39115;59.332;18.034;2023-03-23T13:13:20;98939.50;;;13.46;46.30
51715;BME280;39115;59.332;18.034;2023-03-23T13:18:25;98934.03;;;13.60;45.97
51715;BME280;39115;59.332;18.034;2023-03-23T13:23:50;98934.66;;;13.69;46.00
51715;BME280;39115;59.332;18.034;2023-03-23T13:26:19;98932.63;;;13.71;45.78
51715;BME280;39115;59.332;18.034;2023-03-23T13:28:58;98929.78;;;13.80;45.81
51715;BME280;39115;59.332;18.034;2023-03-23T13:33:49;98926.13;;;13.87;45.44
51715;BME280;39115;59.332;18.034;2023-03-23T13:36:13;98922.00;;;13.91;45.28
51715;BME280;39115;59.332;18.034;2023-03-23T13:38:34;98924.72;;;13.98;45.24
51715;BME280;39115;59.332;18.034;2023-03-23T13:40:56;98921.84;;;14.06;44.76
51715;BME280;39115;59.332;18.034;2023-03-23T13:43:32;98916.94;;;14.23;45.03
51715;BME280;39115;59.332;18.034;2023-03-23T13:45:53;98924.78;;;14.32;44.44
51715;BME280;39115;59.332;18.034;2023-03-23T13:53:25;98915.31;;;14.43;44.51
51715;BME280;39115;59.332;18.034;2023-03-23T13:55:51;98914.50;;;14.49;44.26
51715;BME280;39115;59.332;18.034;2023-03-23T13:58:12;98914.94;;;14.59;45.27
51715;BME280;39115;59.332;18.034;2023-03-23T14:07:55;98907.94;;;14.92;44.12
51715;BME280;39115;59.332;18.034;2023-03-23T14:10:17;98894.94;;;15.02;43.61
51715;BME280;39115;59.332;18.034;2023-03-23T14:12:38;98902.13;;;15.15;43.27
51715;BME280;39115;59.332;18.034;2023-03-23T14:15:03;98893.66;;;15.31;43.44
51715;BME280;39115;59.332;18.034;2023-03-23T14:17:26;98897.06;;;15.52;42.85
51715;BME280;39115;59.332;18.034;2023-03-23T14:19:50;98888.72;;;15.74;42.54
51715;BME280;39115;59.332;18.034;2023-03-23T14:22:24;98877.94;;;15.94;42.22
51715;BME280;39115;59.332;18.034;2023-03-23T14:24:45;98888.16;;;16.10;41.94
51715;BME280;39115;59.332;18.034;2023-03-23T14:29:30;98888.19;;;16.36;41.67
51715;BME280;39115;59.332;18.034;2023-03-23T14:31:56;98892.88;;;16.47;41.20